createdAt,value
2019-04-03T00:00:45.478Z,95579.13
2019-04-03T00:02:21.714Z,95580.64
2019-04-03T00:03:57.531Z,95580.61
2019-04-03T00:05:35.018Z,95571.09
2019-04-03T00:07:12.508Z,95567.62
2019-04-03T00:08:48.572Z,95565.34
2019-04-03T00:10:26.770Z,95562.45
2019-04-03T00:12:05.145Z,95564.56
2019-04-03T00:13:42.455Z,95561.54
2019-04-03T00:15:18.599Z,95562.59
2019-04-03T00:16:55.371Z,95562.75
2019-04-03T00:18:31.079Z,95567.59
2019-04-03T00:20:09.998Z,95561.69
2019-04-03T00:21:45.571Z,95558.97
2019-04-03T00:23:22.435Z,95565.31
2019-04-03T00:24:58.780Z,95564.08
2019-04-03T00:26:35.033Z,95565.74
2019-04-03T00:28:10.663Z,95556.82
2019-04-03T00:29:48.857Z,95553.34
2019-04-03T00:31:24.882Z,95553.64
2019-04-03T00:33:00.510Z,95555.91
2019-04-03T00:34:39.118Z,95556.63
2019-04-03T00:36:19.059Z,95556.36
2019-04-03T00:37:54.017Z,95553.76
2019-04-03T00:39:33.026Z,95548.77
2019-04-03T00:41:09.194Z,95548.31
2019-04-03T00:42:45.413Z,95546.95
2019-04-03T00:44:20.991Z,95543.63
2019-04-03T00:45:56.630Z,95550.58
2019-04-03T00:47:32.239Z,95547.85
2019-04-03T00:49:07.869Z,95546.49
2019-04-03T00:50:43.552Z,95543.32
2019-04-03T00:52:19.095Z,95548.61
2019-04-03T00:53:55.885Z,95540.14
2019-04-03T00:55:31.804Z,95540.45
2019-04-03T00:57:07.102Z,95547.25
2019-04-03T00:58:43.162Z,95538.66
2019-04-03T01:00:19.054Z,95544.56
2019-04-03T01:01:56.393Z,95545.74
2019-04-03T01:03:31.993Z,95547.29
2019-04-03T01:05:07.482Z,95546.23
2019-04-03T01:06:43.515Z,95545.92
2019-04-03T01:08:19.131Z,95540.03
2019-04-03T01:09:55.013Z,95545.18
2019-04-03T01:11:31.566Z,95535.05
2019-04-03T01:13:06.945Z,95534.77
2019-04-03T01:14:44.643Z,95545.52
2019-04-03T01:16:20.197Z,95544.76
2019-04-03T01:17:56.449Z,95539.47
2019-04-03T01:19:32.135Z,95532.36
2019-04-03T01:21:07.837Z,95529.03
2019-04-03T01:22:43.398Z,95535.09
2019-04-03T01:24:19.499Z,95538.29
2019-04-03T01:25:54.836Z,95542.37
2019-04-03T01:27:30.511Z,95546.15
2019-04-03T01:29:06.060Z,95544.66
2019-04-03T01:30:43.830Z,95542.70
2019-04-03T01:32:19.113Z,95541.91
2019-04-03T01:33:55.130Z,95534.66
2019-04-03T01:35:30.622Z,95531.94
2019-04-03T01:37:06.247Z,95534.54
2019-04-03T01:38:41.599Z,95532.27
2019-04-03T01:40:20.000Z,95532.27
2019-04-03T01:41:54.834Z,95538.80
2019-04-03T01:43:30.094Z,95535.31
2019-04-03T01:45:10.530Z,95532.72
2019-04-03T01:46:47.794Z,95528.61
2019-04-03T01:48:23.397Z,95536.66
2019-04-03T01:49:59.121Z,95539.22
2019-04-03T01:51:34.545Z,95543.75
2019-04-03T01:53:10.003Z,95536.80
2019-04-03T01:54:45.950Z,95534.08
2019-04-03T01:56:22.117Z,95535.89
2019-04-03T01:57:58.173Z,95543.59
2019-04-03T01:59:42.888Z,95548.01
2019-04-03T02:01:24.819Z,95552.53
2019-04-03T02:03:05.511Z,95556.63
2019-04-03T02:04:43.987Z,95552.39
2019-04-03T02:06:20.136Z,95552.41
2019-04-03T02:07:56.007Z,95547.41
2019-04-03T02:09:35.791Z,95544.84
2019-04-03T02:11:11.391Z,95547.87
2019-04-03T02:12:47.320Z,95543.48
2019-04-03T02:14:22.864Z,95540.77
2019-04-03T02:15:59.117Z,95530.49
2019-04-03T02:17:34.904Z,95529.30
2019-04-03T02:19:10.341Z,95526.41
2019-04-03T02:20:45.864Z,95532.76
2019-04-03T02:22:21.782Z,95526.87
2019-04-03T02:24:00.849Z,95527.94
2019-04-03T02:25:36.316Z,95522.05
2019-04-03T02:27:12.357Z,95514.34
2019-04-03T02:28:47.785Z,95516.16
2019-04-03T02:30:26.041Z,95516.75
2019-04-03T02:32:03.894Z,95520.98
2019-04-03T02:33:39.943Z,95523.41
2019-04-03T02:35:15.293Z,95515.25
2019-04-03T02:36:53.840Z,95518.13
2019-04-03T02:38:29.495Z,95515.57
2019-04-03T02:40:06.019Z,95519.33
2019-04-03T02:41:44.110Z,95517.06
2019-04-03T02:43:20.880Z,95519.94
2019-04-03T02:44:56.627Z,95509.98
2019-04-03T02:46:32.073Z,95517.06
2019-04-03T02:48:07.839Z,95518.42
2019-04-03T02:49:43.882Z,95516.31
2019-04-03T02:51:20.549Z,95508.01
2019-04-03T02:52:57.973Z,95511.33
2019-04-03T02:54:35.745Z,95508.01
2019-04-03T02:56:13.017Z,95504.23
2019-04-03T02:57:54.045Z,95506.34
2019-04-03T02:59:29.409Z,95509.05
2019-04-03T03:01:07.342Z,95509.22
2019-04-03T03:02:45.357Z,95516.16
2019-04-03T03:04:21.987Z,95508.02
2019-04-03T03:06:00.716Z,95517.83
2019-04-03T03:07:36.357Z,95511.93
2019-04-03T03:09:13.538Z,95514.66
2019-04-03T03:10:51.836Z,95503.92
2019-04-03T03:12:27.809Z,95501.20
2019-04-03T03:14:06.280Z,95488.82
2019-04-03T03:15:41.601Z,95488.23
2019-04-03T03:17:21.516Z,95487.79
2019-04-03T03:18:55.458Z,95490.80
2019-04-03T03:20:32.246Z,95498.63
2019-04-03T03:22:07.667Z,95495.33
2019-04-03T03:23:44.218Z,95500.91
2019-04-03T03:25:20.604Z,95499.40
2019-04-03T03:26:56.034Z,95499.40
2019-04-03T03:28:31.585Z,95493.66
2019-04-03T03:30:32.802Z,95494.11
2019-04-03T03:32:11.560Z,95488.97
2019-04-03T03:33:35.725Z,95497.72
2019-04-03T03:35:14.417Z,95497.72
2019-04-03T03:36:45.935Z,95496.83
2019-04-03T03:38:21.735Z,95495.31
2019-04-03T03:39:58.048Z,95496.52
2019-04-03T03:41:33.486Z,95498.49
2019-04-03T03:43:09.133Z,95498.05
2019-04-03T03:44:47.211Z,95502.88
2019-04-03T03:46:27.850Z,95496.07
2019-04-03T03:48:03.737Z,95495.61
2019-04-03T03:49:41.084Z,95495.77
2019-04-03T03:51:16.572Z,95501.20
2019-04-03T03:52:51.906Z,95495.61
2019-04-03T03:54:28.247Z,95490.48
2019-04-03T03:56:03.938Z,95487.16
2019-04-03T03:57:40.444Z,95482.03
2019-04-03T03:59:17.639Z,95480.53
2019-04-03T04:00:57.599Z,95478.73
2019-04-03T04:02:30.381Z,95471.02
2019-04-03T04:04:05.877Z,95478.86
2019-04-03T04:05:41.312Z,95479.33
2019-04-03T04:07:16.927Z,95468.89
2019-04-03T04:08:52.603Z,95466.02
2019-04-03T04:10:29.044Z,95465.89
2019-04-03T04:12:07.550Z,95456.83
2019-04-03T04:13:42.980Z,95456.83
2019-04-03T04:15:20.563Z,95452.92
2019-04-03T04:16:56.980Z,95445.38
2019-04-03T04:18:32.721Z,95449.90
2019-04-03T04:20:08.436Z,95458.35
2019-04-03T04:21:45.125Z,95450.80
2019-04-03T04:23:24.518Z,95455.33
2019-04-03T04:24:59.814Z,95463.88
2019-04-03T04:26:35.798Z,95464.04
2019-04-03T04:28:11.140Z,95469.66
2019-04-03T04:29:46.374Z,95464.02
2019-04-03T04:31:21.966Z,95460.72
2019-04-03T04:33:00.591Z,95458.16
2019-04-03T04:34:36.134Z,95455.89
2019-04-03T04:36:11.685Z,95458.77
2019-04-03T04:37:46.976Z,95452.11
2019-04-03T04:39:26.509Z,95457.83
2019-04-03T04:41:01.857Z,95460.41
2019-04-03T04:42:37.031Z,95459.50
2019-04-03T04:44:14.278Z,95469.16
2019-04-03T04:45:49.759Z,95464.64
2019-04-03T04:47:25.708Z,95466.59
2019-04-03T04:49:04.078Z,95467.34
2019-04-03T04:50:39.640Z,95460.08
2019-04-03T04:52:18.688Z,95462.80
2019-04-03T04:54:00.422Z,95458.13
2019-04-03T04:55:36.038Z,95470.95
2019-04-03T04:57:11.500Z,95465.66
2019-04-03T04:58:47.051Z,95468.69
2019-04-03T05:00:25.656Z,95464.77
2019-04-03T05:02:01.794Z,95465.66
2019-04-03T05:03:37.362Z,95466.70
2019-04-03T05:05:27.211Z,95462.50
2019-04-03T05:07:12.708Z,95464.02
2019-04-03T05:08:48.346Z,95460.23
2019-04-03T05:10:23.798Z,95461.30
2019-04-03T05:11:59.336Z,95461.30
2019-04-03T05:13:46.797Z,95459.49
2019-04-03T05:15:41.107Z,95468.10
2019-04-03T05:17:24.830Z,95462.52
2019-04-03T05:19:09.447Z,95462.64
2019-04-03T05:20:41.065Z,95461.88
2019-04-03T05:22:19.702Z,95466.11
2019-04-03T05:24:09.976Z,95468.70
2019-04-03T05:25:33.981Z,95468.83
2019-04-03T05:27:09.365Z,95470.48
2019-04-03T05:28:55.687Z,95472.60
2019-04-03T05:30:30.685Z,95475.30
2019-04-03T05:32:09.611Z,95476.20
2019-04-03T05:33:48.298Z,95477.86
2019-04-03T05:35:31.410Z,95477.43
2019-04-03T05:37:07.242Z,95473.22
2019-04-03T05:38:43.082Z,95470.82
2019-04-03T05:40:21.219Z,95472.00
2019-04-03T05:41:59.519Z,95463.10
2019-04-03T05:43:37.446Z,95455.88
2019-04-03T05:45:19.941Z,95460.99
2019-04-03T05:46:59.423Z,95455.12
2019-04-03T05:48:33.930Z,95457.39
2019-04-03T05:50:09.669Z,95457.70
2019-04-03T05:51:45.216Z,95454.08
2019-04-03T05:53:21.582Z,95456.78
2019-04-03T05:54:57.629Z,95452.41
2019-04-03T05:56:34.887Z,95451.35
2019-04-03T05:58:15.358Z,95452.11
2019-04-03T05:59:59.500Z,95452.84
2019-04-03T06:01:29.586Z,95449.39
2019-04-03T06:03:05.177Z,95444.42
2019-04-03T06:04:41.593Z,95451.37
2019-04-03T06:06:17.406Z,95446.25
2019-04-03T06:07:54.507Z,95448.64
2019-04-03T06:09:30.057Z,95454.53
2019-04-03T06:11:09.855Z,95455.73
2019-04-03T06:12:46.867Z,95445.33
2019-04-03T06:14:23.512Z,95447.18
2019-04-03T06:15:59.404Z,95450.33
2019-04-03T06:17:36.868Z,95452.15
2019-04-03T06:19:14.566Z,95460.91
2019-04-03T06:20:50.694Z,95462.12
2019-04-03T06:22:26.236Z,95460.30
2019-04-03T06:24:05.197Z,95452.01
2019-04-03T06:25:40.815Z,95458.19
2019-04-03T06:27:20.323Z,95459.19
2019-04-03T06:28:55.646Z,95461.31
2019-04-03T06:30:33.856Z,95463.59
2019-04-03T06:32:14.313Z,95465.37
2019-04-03T06:33:51.337Z,95463.88
2019-04-03T06:35:29.365Z,95466.87
2019-04-03T06:37:12.449Z,95473.20
2019-04-03T06:38:56.051Z,95472.01
2019-04-03T06:40:35.155Z,95465.09
2019-04-03T06:42:13.264Z,95471.28
2019-04-03T06:43:50.841Z,95470.83
2019-04-03T06:45:27.102Z,95478.06
2019-04-03T06:47:03.203Z,95482.28
2019-04-03T06:48:41.247Z,95476.56
2019-04-03T06:50:17.909Z,95472.92
2019-04-03T06:51:53.754Z,95477.05
2019-04-03T06:53:32.352Z,95476.08
2019-04-03T06:55:08.245Z,95477.73
2019-04-03T06:56:45.644Z,95468.53
2019-04-03T06:58:21.706Z,95469.59
2019-04-03T06:59:57.403Z,95466.58
2019-04-03T07:01:33.451Z,95473.52
2019-04-03T07:03:10.741Z,95471.98
2019-04-03T07:04:49.586Z,95471.07
2019-04-03T07:06:33.519Z,95478.02
2019-04-03T07:08:12.907Z,95483.56
2019-04-03T07:09:50.835Z,95478.84
2019-04-03T07:11:29.061Z,95484.09
2019-04-03T07:13:05.761Z,95480.75
2019-04-03T07:14:42.923Z,95484.34
2019-04-03T07:16:22.724Z,95485.61
2019-04-03T07:18:01.740Z,95477.16
2019-04-03T07:19:40.314Z,95480.44
2019-04-03T07:21:18.980Z,95475.98
2019-04-03T07:22:59.068Z,95485.34
2019-04-03T07:24:36.277Z,95486.98
2019-04-03T07:26:14.332Z,95483.05
2019-04-03T07:27:54.200Z,95486.23
2019-04-03T07:29:38.940Z,95483.20
2019-04-03T07:31:17.737Z,95480.02
2019-04-03T07:33:11.799Z,95488.34
2019-04-03T07:34:50.087Z,95485.16
2019-04-03T07:36:25.707Z,95485.19
2019-04-03T07:38:14.781Z,95489.83
2019-04-03T07:39:54.773Z,95489.67
2019-04-03T07:41:33.454Z,95501.88
2019-04-03T07:43:13.867Z,95493.78
2019-04-03T07:44:49.516Z,95494.54
2019-04-03T07:46:25.754Z,95497.37
2019-04-03T07:48:01.247Z,95503.55
2019-04-03T07:49:40.574Z,95508.98
2019-04-03T07:51:22.020Z,95505.38
2019-04-03T07:52:57.884Z,95511.65
2019-04-03T07:54:33.553Z,95514.23
2019-04-03T07:56:13.347Z,95520.94
2019-04-03T07:57:50.855Z,95518.38
2019-04-03T07:59:35.871Z,95521.81
2019-04-03T08:01:18.792Z,95524.27
2019-04-03T08:02:54.605Z,95521.56
2019-04-03T08:04:30.339Z,95521.83
2019-04-03T08:06:09.121Z,95525.89
2019-04-03T08:07:44.854Z,95531.19
2019-04-03T08:09:21.952Z,95540.47
2019-04-03T08:10:57.526Z,95538.52
2019-04-03T08:12:36.094Z,95547.89
2019-04-03T08:14:12.306Z,95551.42
2019-04-03T08:15:49.405Z,95551.36
2019-04-03T08:17:29.389Z,95561.12
2019-04-03T08:19:07.810Z,95569.68
2019-04-03T08:20:57.641Z,95573.15
2019-04-03T08:22:49.369Z,95577.38
2019-04-03T08:24:28.453Z,95570.65
2019-04-03T08:26:05.185Z,95582.84
2019-04-03T08:27:41.319Z,95579.42
2019-04-03T08:29:16.774Z,95581.94
2019-04-03T08:30:55.678Z,95577.48
2019-04-03T08:32:37.052Z,95579.05
2019-04-03T08:34:16.713Z,95582.63
2019-04-03T08:35:49.331Z,95579.92
2019-04-03T08:37:31.633Z,95585.29
2019-04-03T08:39:17.906Z,95578.48
2019-04-03T08:40:56.014Z,95577.72
2019-04-03T08:42:34.050Z,95575.58
2019-04-03T08:44:23.018Z,95573.94
2019-04-03T08:45:59.626Z,95569.47
2019-04-03T08:47:38.200Z,95582.16
2019-04-03T08:49:14.140Z,95571.34
2019-04-03T08:50:52.826Z,95573.53
2019-04-03T08:52:31.341Z,95571.45
2019-04-03T08:54:10.662Z,95567.59
2019-04-03T08:55:49.896Z,95568.03
2019-04-03T08:57:27.870Z,95568.47
2019-04-03T08:59:03.338Z,95574.49
2019-04-03T09:00:43.041Z,95573.53
2019-04-03T09:02:20.106Z,95570.98
2019-04-03T09:03:55.694Z,95560.50
2019-04-03T09:05:32.380Z,95565.80
2019-04-03T09:07:10.037Z,95567.94
2019-04-03T09:08:51.010Z,95564.19
2019-04-03T09:10:31.602Z,95566.23
2019-04-03T09:12:08.319Z,95563.91
2019-04-03T09:13:44.956Z,95567.16
2019-04-03T09:15:42.971Z,95565.39
2019-04-03T09:17:19.126Z,95562.70
2019-04-03T09:19:02.353Z,95560.91
2019-04-03T09:20:37.949Z,95561.06
2019-04-03T09:22:54.495Z,95557.84
2019-04-03T09:24:31.517Z,95557.13
2019-04-03T09:26:11.303Z,95553.81
2019-04-03T09:28:00.726Z,95559.45
2019-04-03T09:29:45.178Z,95556.13
2019-04-03T09:31:36.746Z,95560.80
2019-04-03T09:33:13.422Z,95555.38
2019-04-03T09:34:48.845Z,95548.44
2019-04-03T09:36:25.858Z,95553.11
2019-04-03T09:38:04.444Z,95544.94
2019-04-03T09:39:40.638Z,95552.01
2019-04-03T09:41:19.201Z,95552.64
2019-04-03T09:43:00.450Z,95545.43
2019-04-03T09:44:41.800Z,95544.97
2019-04-03T09:46:21.847Z,95551.47
2019-04-03T09:48:00.874Z,95552.38
2019-04-03T09:49:43.747Z,95547.97
2019-04-03T09:51:22.794Z,95550.05
2019-04-03T09:53:01.624Z,95551.72
2019-04-03T09:54:38.341Z,95545.09
2019-04-03T09:56:16.989Z,95550.49
2019-04-03T09:57:53.531Z,95550.23
2019-04-03T09:59:30.500Z,95548.98
2019-04-03T10:01:19.975Z,95551.22
2019-04-03T10:02:58.539Z,95552.42
2019-04-03T10:04:36.956Z,95556.90
2019-04-03T10:06:19.863Z,95555.42
2019-04-03T10:08:21.594Z,95559.36
2019-04-03T10:11:55.399Z,95552.06
2019-04-03T10:13:34.952Z,95558.09
2019-04-03T10:15:13.366Z,95556.29
2019-04-03T10:16:50.765Z,95546.81
2019-04-03T10:18:28.581Z,95541.34
2019-04-03T10:20:08.326Z,95545.77
2019-04-03T10:21:55.453Z,95540.50
2019-04-03T10:23:31.538Z,95534.75
2019-04-03T10:25:14.509Z,95524.35
2019-04-03T10:27:00.860Z,95525.58
2019-04-03T10:28:37.753Z,95521.67
2019-04-03T10:30:42.977Z,95521.22
2019-04-03T10:33:04.689Z,95524.74
2019-04-03T10:34:46.445Z,95521.36
2019-04-03T10:36:23.092Z,95522.61
2019-04-03T10:38:06.325Z,95522.32
2019-04-03T10:39:44.689Z,95513.13
2019-04-03T10:41:23.262Z,95513.73
2019-04-03T10:43:05.742Z,95513.13
2019-04-03T10:44:41.286Z,95515.39
2019-04-03T10:46:20.164Z,95506.34
2019-04-03T10:48:07.028Z,95507.24
2019-04-03T10:49:47.746Z,95507.27
2019-04-03T10:51:23.201Z,95502.56
2019-04-03T10:53:09.295Z,95503.31
2019-04-03T10:54:56.815Z,95498.80
2019-04-03T10:56:58.715Z,95496.23
2019-04-03T10:58:42.250Z,95501.67
2019-04-03T11:00:18.317Z,95497.28
2019-04-03T11:01:53.890Z,95498.79
2019-04-03T11:03:29.805Z,95504.67
2019-04-03T11:05:05.590Z,95500.16
2019-04-03T11:06:43.261Z,95498.18
2019-04-03T11:08:21.493Z,95495.61
2019-04-03T11:10:01.139Z,95491.08
2019-04-03T11:11:38.090Z,95490.46
2019-04-03T11:13:18.348Z,95482.13
2019-04-03T11:14:55.304Z,95470.82
2019-04-03T11:16:32.431Z,95470.64
2019-04-03T11:18:08.469Z,95455.95
2019-04-03T11:19:57.406Z,95451.56
2019-04-03T11:21:43.236Z,95444.17
2019-04-03T11:23:35.774Z,95431.91
2019-04-03T11:24:58.102Z,95410.16
2019-04-03T11:26:34.390Z,95410.69
2019-04-03T11:28:17.674Z,95412.25
2019-04-03T11:29:58.370Z,95427.88
2019-04-03T11:31:41.468Z,95417.05
2019-04-03T11:33:17.403Z,95411.69
2019-04-03T11:35:06.231Z,95413.59
2019-04-03T11:36:44.189Z,95416.14
2019-04-03T11:38:40.219Z,95421.91
2019-04-03T11:40:25.488Z,95420.08
2019-04-03T11:42:04.800Z,95423.52
2019-04-03T11:43:46.888Z,95434.95
2019-04-03T11:45:27.078Z,95440.27
2019-04-03T11:47:07.078Z,95433.91
2019-04-03T11:48:49.230Z,95427.38
2019-04-03T11:50:38.914Z,95418.27
2019-04-03T11:52:15.825Z,95414.30
2019-04-03T11:53:52.614Z,95413.44
2019-04-03T11:55:32.740Z,95396.52
2019-04-03T11:57:16.418Z,95395.73
2019-04-03T11:58:53.481Z,95382.11
2019-04-03T12:00:32.554Z,95382.36
2019-04-03T12:02:09.546Z,95385.25
2019-04-03T12:03:50.882Z,95383.47
2019-04-03T12:05:28.184Z,95381.30
2019-04-03T12:07:04.290Z,95377.53
2019-04-03T12:08:48.258Z,95377.79
2019-04-03T12:10:30.094Z,95399.90
2019-04-03T12:12:11.298Z,95389.39
2019-04-03T12:13:47.113Z,95387.39
2019-04-03T12:15:26.371Z,95383.64
2019-04-03T12:17:01.862Z,95402.25
2019-04-03T12:18:42.716Z,95409.80
2019-04-03T12:20:22.442Z,95425.42
2019-04-03T12:22:05.406Z,95431.11
2019-04-03T12:23:47.320Z,95440.11
2019-04-03T12:25:23.503Z,95436.28
2019-04-03T12:27:16.271Z,95441.09
2019-04-03T12:28:52.242Z,95446.52
2019-04-03T12:30:28.225Z,95449.16
2019-04-03T12:32:09.158Z,95427.15
2019-04-03T12:33:54.562Z,95427.52
2019-04-03T12:35:24.235Z,95423.43
2019-04-03T12:37:01.350Z,95413.98
2019-04-03T12:38:36.931Z,95408.91
2019-04-03T12:40:17.222Z,95408.88
2019-04-03T12:41:58.290Z,95410.38
2019-04-03T12:43:35.068Z,95415.08
2019-04-03T12:45:18.316Z,95413.45
2019-04-03T12:46:51.910Z,95421.31
2019-04-03T12:48:29.448Z,95413.28
2019-04-03T12:50:11.815Z,95419.68
2019-04-03T12:51:46.649Z,95414.59
2019-04-03T12:53:24.083Z,95414.99
2019-04-03T12:55:04.113Z,95424.91
2019-04-03T12:56:40.599Z,95416.79
2019-04-03T12:58:24.253Z,95419.83
2019-04-03T12:59:59.959Z,95417.08
2019-04-03T13:01:59.905Z,95416.23
2019-04-03T13:03:39.523Z,95410.70
2019-04-03T13:05:16.666Z,95420.67
2019-04-03T13:06:54.738Z,95413.05
2019-04-03T13:08:30.597Z,95410.32
2019-04-03T13:10:07.883Z,95408.03
2019-04-03T13:11:44.353Z,95406.70
2019-04-03T13:13:23.083Z,95407.59
2019-04-03T13:15:07.120Z,95403.28
2019-04-03T13:16:47.033Z,95394.33
2019-04-03T13:18:26.896Z,95391.99
2019-04-03T13:20:08.620Z,95394.57
2019-04-03T13:21:46.137Z,95388.44
2019-04-03T13:23:27.672Z,95374.31
2019-04-03T13:25:06.307Z,95375.09
2019-04-03T13:26:45.962Z,95371.36
2019-04-03T13:28:21.989Z,95366.13
2019-04-03T13:30:04.708Z,95356.58
2019-04-03T13:31:47.077Z,95356.91
2019-04-03T13:33:25.489Z,95349.66
2019-04-03T13:35:09.190Z,95353.63
2019-04-03T13:36:44.846Z,95347.72
2019-04-03T13:38:23.221Z,95343.55
2019-04-03T13:40:05.632Z,95342.05
2019-04-03T13:41:42.434Z,95340.23
2019-04-03T13:43:20.490Z,95331.75
2019-04-03T13:44:57.962Z,95321.57
2019-04-03T13:46:36.520Z,95310.82
2019-04-03T13:48:13.447Z,95306.28
2019-04-03T13:49:50.083Z,95304.52
2019-04-03T13:51:30.748Z,95307.67
2019-04-03T13:53:13.602Z,95302.80
2019-04-03T13:54:53.286Z,95303.69
2019-04-03T13:56:44.552Z,95305.66
2019-04-03T13:58:21.142Z,95312.99
2019-04-03T14:00:01.615Z,95307.97
2019-04-03T14:01:39.486Z,95300.63
2019-04-03T14:03:18.225Z,95300.05
2019-04-03T14:04:54.671Z,95303.30
2019-04-03T14:06:31.004Z,95304.30
2019-04-03T14:08:07.395Z,95303.45
2019-04-03T14:09:50.226Z,95313.46
2019-04-03T14:11:23.259Z,95322.72
2019-04-03T14:13:02.199Z,95332.11
2019-04-03T14:14:42.250Z,95341.30
2019-04-03T14:16:22.185Z,95336.60
2019-04-03T14:17:59.044Z,95338.89
2019-04-03T14:19:43.377Z,95339.70
2019-04-03T14:21:17.492Z,95341.52
2019-04-03T14:22:55.692Z,95340.17
2019-04-03T14:24:41.508Z,95337.30
2019-04-03T14:26:12.950Z,95334.59
2019-04-03T14:27:54.563Z,95333.09
2019-04-03T14:29:33.742Z,95333.41
2019-04-03T14:31:09.467Z,95329.17
2019-04-03T14:32:55.265Z,95316.81
2019-04-03T14:35:31.673Z,95326.65
2019-04-03T14:36:52.679Z,95327.64
2019-04-03T14:38:30.999Z,95325.23
2019-04-03T14:40:11.520Z,95335.03
2019-04-03T14:41:53.618Z,95325.73
2019-04-03T14:43:36.403Z,95328.52
2019-04-03T14:45:26.872Z,95317.17
2019-04-03T14:47:05.761Z,95317.16
2019-04-03T14:48:46.124Z,95313.85
2019-04-03T14:50:24.737Z,95315.85
2019-04-03T14:52:03.480Z,95324.08
2019-04-03T14:53:39.062Z,95325.41
2019-04-03T14:55:21.919Z,95333.62
2019-04-03T14:56:56.759Z,95341.53
2019-04-03T14:58:33.804Z,95336.69
2019-04-03T15:00:24.910Z,95333.77
2019-04-03T15:01:50.675Z,95327.80
2019-04-03T15:03:27.964Z,95324.89
2019-04-03T15:05:06.645Z,95326.95
2019-04-03T15:06:41.445Z,95309.82
2019-04-03T15:08:20.295Z,95307.90
2019-04-03T15:10:01.262Z,95303.49
2019-04-03T15:11:39.529Z,95300.44
2019-04-03T15:13:16.815Z,95295.13
2019-04-03T15:15:36.007Z,95308.19
2019-04-03T15:17:11.609Z,95312.13
2019-04-03T15:18:52.513Z,95312.13
2019-04-03T15:20:29.620Z,95315.28
2019-04-03T15:22:07.012Z,95310.27
2019-04-03T15:23:53.915Z,95311.63
2019-04-03T15:25:29.595Z,95323.62
2019-04-03T15:27:05.708Z,95337.04
2019-04-03T15:28:46.501Z,95339.06
2019-04-03T15:30:25.975Z,95341.56
2019-04-03T15:32:06.249Z,95345.14
2019-04-03T15:33:46.995Z,95340.74
2019-04-03T15:35:23.105Z,95336.14
2019-04-03T15:37:08.536Z,95335.15
2019-04-03T15:38:53.305Z,95327.56
2019-04-03T15:40:29.823Z,95329.93
2019-04-03T15:42:08.524Z,95337.98
2019-04-03T15:43:52.041Z,95344.30
2019-04-03T15:45:30.134Z,95345.27
2019-04-03T15:47:10.418Z,95340.64
2019-04-03T15:48:45.476Z,95338.81
2019-04-03T15:50:21.940Z,95331.57
2019-04-03T15:51:57.325Z,95337.63
2019-04-03T15:53:38.440Z,95342.83
2019-04-03T15:55:15.447Z,95341.47
2019-04-03T15:56:51.264Z,95344.48
2019-04-03T15:58:32.998Z,95335.75
2019-04-03T16:00:13.820Z,95335.97
2019-04-03T16:01:52.623Z,95331.88
2019-04-03T16:03:36.627Z,95329.91
2019-04-03T16:05:13.476Z,95328.84
2019-04-03T16:06:50.714Z,95331.41
2019-04-03T16:08:27.769Z,95320.33
2019-04-03T16:10:11.660Z,95315.48
2019-04-03T16:11:50.465Z,95311.91
2019-04-03T16:13:35.076Z,95305.53
2019-04-03T16:15:17.706Z,95299.76
2019-04-03T16:17:03.785Z,95298.34
2019-04-03T16:18:40.923Z,95298.33
2019-04-03T16:20:17.863Z,95295.75
2019-04-03T16:22:04.815Z,95295.77
2019-04-03T16:23:40.623Z,95300.95
2019-04-03T16:25:20.046Z,95299.44
2019-04-03T16:26:57.663Z,95299.00
2019-04-03T16:28:39.392Z,95301.74
2019-04-03T16:30:19.290Z,95291.98
2019-04-03T16:31:57.228Z,95298.08
2019-04-03T16:33:33.407Z,95298.77
2019-04-03T16:35:17.698Z,95297.12
2019-04-03T16:36:55.392Z,95301.18
2019-04-03T16:38:36.359Z,95298.08
2019-04-03T16:41:01.359Z,95289.88
2019-04-03T16:43:37.457Z,95279.16
2019-04-03T16:45:19.514Z,95281.03
2019-04-03T16:47:12.920Z,95281.08
2019-04-03T16:48:52.244Z,95285.31
2019-04-03T16:50:28.293Z,95284.55
2019-04-03T16:52:19.241Z,95286.33
2019-04-03T16:53:42.384Z,95291.61
2019-04-03T16:55:17.852Z,95292.56
2019-04-03T16:56:57.599Z,95289.39
2019-04-03T16:58:38.459Z,95284.41
2019-04-03T17:00:21.143Z,95285.63
2019-04-03T17:01:56.862Z,95287.64
2019-04-03T17:03:33.847Z,95284.02
2019-04-03T17:05:13.421Z,95283.42
2019-04-03T17:06:54.630Z,95273.19
2019-04-03T17:08:45.920Z,95272.30
2019-04-03T17:10:22.118Z,95272.61
2019-04-03T17:11:58.451Z,95276.88
2019-04-03T17:13:38.546Z,95275.06
2019-04-03T17:15:21.498Z,95280.39
2019-04-03T17:16:58.352Z,95288.55
2019-04-03T17:18:34.514Z,95281.14
2019-04-03T17:20:10.616Z,95283.41
2019-04-03T17:21:49.473Z,95283.89
2019-04-03T17:23:25.607Z,95291.74
2019-04-03T17:25:06.735Z,95288.58
2019-04-03T17:26:48.771Z,95286.61
2019-04-03T17:28:19.944Z,95288.88
2019-04-03T17:30:00.443Z,95281.94
2019-04-03T17:31:43.006Z,95276.98
2019-04-03T17:33:19.083Z,95265.94
2019-04-03T17:34:57.573Z,95269.29
2019-04-03T17:36:36.798Z,95263.68
2019-04-03T17:38:14.751Z,95267.60
2019-04-03T17:39:53.823Z,95277.89
2019-04-03T17:41:37.917Z,95281.33
2019-04-03T17:43:15.577Z,95283.77
2019-04-03T17:44:52.367Z,95284.22
2019-04-03T17:46:31.262Z,95302.62
2019-04-03T17:48:08.722Z,95307.15
2019-04-03T17:50:06.302Z,95315.44
2019-04-03T17:51:42.313Z,95323.75
2019-04-03T17:53:21.675Z,95333.12
2019-04-03T17:54:59.846Z,95346.81
2019-04-03T17:56:43.711Z,95344.87
2019-04-03T17:58:27.963Z,95334.76
2019-04-03T18:00:16.889Z,95336.42
2019-04-03T18:01:55.040Z,95332.95
2019-04-03T18:03:34.160Z,95325.27
2019-04-03T18:05:21.103Z,95322.09
2019-04-03T18:07:46.702Z,95323.58
2019-04-03T18:14:24.786Z,95306.69
2019-04-03T18:16:02.690Z,95306.98
2019-04-03T18:17:38.298Z,95311.65
2019-04-03T18:19:22.753Z,95306.83
2019-04-03T18:21:01.065Z,95308.64
2019-04-03T18:22:41.688Z,95317.80
2019-04-03T18:24:23.212Z,95331.20
2019-04-03T18:26:03.149Z,95337.06
2019-04-03T18:27:46.565Z,95330.44
2019-04-03T18:29:30.308Z,95336.29
2019-04-03T18:31:06.267Z,95343.98
2019-04-03T18:32:45.507Z,95339.62
2019-04-03T18:34:21.878Z,95340.98
2019-04-03T18:36:03.314Z,95340.20
2019-04-03T18:37:40.899Z,95355.99
2019-04-03T18:39:21.244Z,95361.13
2019-04-03T18:40:58.451Z,95365.48
2019-04-03T18:42:39.531Z,95365.64
2019-04-03T18:44:22.419Z,95377.52
2019-04-03T18:46:08.695Z,95386.38
2019-04-03T18:48:04.308Z,95387.73
2019-04-03T18:49:48.000Z,95390.13
2019-04-03T18:51:27.196Z,95383.50
2019-04-03T18:53:09.576Z,95385.02
2019-04-03T18:54:46.297Z,95389.52
2019-04-03T18:56:26.356Z,95397.66
2019-04-03T18:58:05.782Z,95403.98
2019-04-03T18:59:46.790Z,95400.92
2019-04-03T19:01:32.580Z,95402.16
2019-04-03T19:05:01.996Z,95387.34
2019-04-03T19:06:32.616Z,95374.87
2019-04-03T19:08:13.346Z,95371.88
2019-04-03T19:09:45.743Z,95374.62
2019-04-03T19:11:25.681Z,95378.37
2019-04-03T19:13:06.607Z,95381.84
2019-04-03T19:14:51.106Z,95380.61
2019-04-03T19:16:29.800Z,95369.77
2019-04-03T19:18:18.975Z,95373.23
2019-04-03T19:19:48.343Z,95390.25
2019-04-03T19:21:33.530Z,95389.77
2019-04-03T19:23:13.811Z,95382.72
2019-04-03T19:24:50.421Z,95380.73
2019-04-03T19:26:35.290Z,95389.93
2019-04-03T19:28:13.347Z,95402.08
2019-04-03T19:29:48.943Z,95411.29
2019-04-03T19:31:27.607Z,95396.39
2019-04-03T19:33:03.569Z,95401.84
2019-04-03T19:34:44.469Z,95406.14